Time;durP1;ratioP1;P1;durP2;ratioP2;P2;SDS_P1;SDS_P2;PMS_P1;PMS_P2;Temp;Humidity;BMP_temperature;BMP_pressure;BME280_temperature;BME280_humidity;BME280_pressure;Samples;Min_cycle;Max_cycle;Signal;HPM_P1;HPM_P2
2023/03/22 00:01:32;;;;;;;12.65;5.13;;;;;;;9.56;100.00;100791.44;4906337;29;20055;-90
2023/03/22 00:03:57;;;;;;;11.32;4.43;;;;;;;9.54;100.00;100805.78;4922365;29;20102;-89
2023/03/22 00:06:23;;;;;;;14.65;5.25;;;;;;;9.42;100.00;100797.59;4910234;29;20115;-90
2023/03/22 00:08:50;;;;;;;11.48;4.43;;;;;;;9.45;100.00;100796.06;4921046;29;20497;-89
2023/03/22 00:11:17;;;;;;;9.98;4.20;;;;;;;9.55;100.00;100789.84;4917218;29;20031;-90
2023/03/22 00:13:42;;;;;;;9.48;5.45;;;;;;;9.45;100.00;100785.69;4925458;29;20494;-89
2023/03/22 00:16:09;;;;;;;14.15;5.93;;;;;;;9.42;100.00;100791.19;4904327;29;20039;-89
2023/03/22 00:18:34;;;;;;;9.85;4.15;;;;;;;9.40;100.00;100782.38;4903843;29;20371;-90
2023/03/22 00:21:00;;;;;;;19.35;5.85;;;;;;;9.37;100.00;100789.53;4924314;29;20094;-90
2023/03/22 00:23:27;;;;;;;12.52;4.90;;;;;;;9.41;100.00;100786.81;4906240;29;20063;-89
2023/03/22 00:25:52;;;;;;;10.95;3.97;;;;;;;9.36;100.00;100773.97;4923608;29;20422;-90
2023/03/22 00:28:18;;;;;;;10.77;5.20;;;;;;;9.43;100.00;100785.25;4923170;29;20050;-90
2023/03/22 00:30:53;;;;;;;16.10;5.57;;;;;;;9.39;100.00;100789.97;4926037;29;20044;-90
2023/03/22 00:33:19;;;;;;;17.80;5.05;;;;;;;9.31;100.00;100768.66;4905442;29;20046;-90
2023/03/22 00:35:56;;;;;;;11.15;4.63;;;;;;;9.48;100.00;100779.34;4912883;29;20114;-90
2023/03/22 00:38:22;;;;;;;9.98;3.95;;;;;;;9.39;100.00;100775.19;4924013;29;20027;-89
2023/03/22 00:40:47;;;;;;;8.18;3.58;;;;;;;9.36;100.00;100754.41;4918053;29;20228;-90
2023/03/22 00:43:14;;;;;;;7.75;3.90;;;;;;;9.46;100.00;100764.13;4908295;29;20046;-90
2023/03/22 00:45:39;;;;;;;15.48;5.05;;;;;;;9.49;100.00;100755.00;4914712;29;20044;-90
2023/03/22 00:48:10;;;;;;;6.75;3.90;;;;;;;9.44;100.00;100755.31;4930599;29;20371;-90
2023/03/22 00:50:37;;;;;;;8.65;3.63;;;;;;;9.34;100.00;100753.97;4906645;29;20431;-90
2023/03/22 00:53:03;;;;;;;14.45;4.10;;;;;;;9.30;100.00;100744.72;4930171;29;20473;-89
2023/03/22 00:55:29;;;;;;;11.13;3.17;;;;;;;9.40;100.00;100760.81;4913759;29;20042;-90
2023/03/22 00:57:54;;;;;;;11.57;3.80;;;;;;;9.41;100.00;100756.06;4922488;29;20031;-90
2023/03/22 01:00:20;;;;;;;12.30;3.03;;;;;;;9.44;100.00;100758.09;4908775;29;20063;-90
2023/03/22 01:02:45;;;;;;;8.93;4.38;;;;;;;9.43;100.00;100748.13;4911976;29;20032;-89
2023/03/22 01:05:14;;;;;;;10.60;3.42;;;;;;;9.41;100.00;100762.47;4912108;29;20099;-89
2023/03/22 01:07:41;;;;;;;12.95;4.03;;;;;;;9.36;100.00;100735.66;4923820;29;20063;-90
2023/03/22 01:10:08;;;;;;;11.68;4.00;;;;;;;9.40;100.00;100749.66;4925936;29;20518;-90
2023/03/22 01:12:34;;;;;;;10.82;3.55;;;;;;;9.27;100.00;100728.69;4914117;29;20389;-90
2023/03/22 01:14:59;;;;;;;5.03;3.67;;;;;;;9.32;100.00;100731.97;4916495;29;20035;-90
2023/03/22 01:17:24;;;;;;;11.95;3.35;;;;;;;9.24;100.00;100709.91;4930476;29;20032;-90
2023/03/22 01:19:50;;;;;;;13.48;3.15;;;;;;;9.40;100.00;100737.69;4931777;29;20027;-89
2023/03/22 01:22:15;;;;;;;9.45;3.53;;;;;;;9.30;100.00;100714.00;4914144;29;20629;-90
2023/03/22 01:24:44;;;;;;;15.57;4.82;;;;;;;9.43;100.00;100737.75;4914284;29;20037;-90
2023/03/22 01:27:10;;;;;;;13.10;3.22;;;;;;;9.42;100.00;100735.31;4926289;29;20038;-90
2023/03/22 01:29:36;;;;;;;15.18;3.95;;;;;;;9.41;100.00;100728.13;4928021;29;20503;-90
2023/03/22 01:32:03;;;;;;;8.98;3.20;;;;;;;9.36;100.00;100715.28;4914541;29;20091;-90
2023/03/22 01:34:28;;;;;;;9.95;3.15;;;;;;;9.39;100.00;100724.91;4914068;29;20110;-90
2023/03/22 01:36:54;;;;;;;8.30;3.35;;;;;;;9.39;100.00;100725.72;4913072;29;20262;-90
2023/03/22 01:39:19;;;;;;;12.10;3.10;;;;;;;9.33;100.00;100702.06;4908718;29;21283;-89
2023/03/22 01:41:45;;;;;;;5.75;3.05;;;;;;;9.41;100.00;100716.97;4909351;29;20035;-89
2023/03/22 01:44:19;;;;;;;10.82;3.42;;;;;;;9.42;100.00;100715.75;4925816;29;20075;-90
2023/03/22 01:46:47;;;;;;;15.18;3.58;;;;;;;9.41;100.00;100701.00;4913036;29;20035;-90
2023/03/22 01:49:22;;;;;;;5.43;2.83;;;;;;;9.40;100.00;100699.38;4910994;29;20048;-90
2023/03/22 01:51:51;;;;;;;12.93;3.05;;;;;;;9.34;100.00;100692.50;4910377;29;20090;-90
2023/03/22 01:54:28;;;;;;;9.45;3.35;;;;;;;9.44;100.00;100686.28;4912257;29;20544;-90
2023/03/22 01:56:54;;;;;;;14.65;3.67;;;;;;;9.41;100.00;100694.63;4907449;29;20114;-88
2023/03/22 01:59:20;;;;;;;15.07;3.15;;;;;;;9.40;100.00;100681.81;4911968;29;20132;-90
2023/03/22 02:01:45;;;;;;;13.00;3.83;;;;;;;9.36;100.00;100676.19;4928309;29;20485;-89
2023/03/22 02:04:15;;;;;;;12.27;3.80;;;;;;;9.31;100.00;100659.72;4908789;29;20032;-90
2023/03/22 02:06:41;;;;;;;11.52;3.85;;;;;;;9.36;100.00;100670.59;4910974;29;20039;-90
2023/03/22 02:09:09;;;;;;;8.90;3.08;;;;;;;9.41;100.00;100673.06;4909597;29;20411;-89
2023/03/22 02:11:41;;;;;;;8.15;3.30;;;;;;;9.40;100.00;100670.63;4931633;29;20455;-90
2023/03/22 02:14:24;;;;;;;14.18;3.47;;;;;;;9.47;100.00;100667.97;4914146;29;20035;-89
2023/03/22 02:17:14;;;;;;;7.40;3.13;;;;;;;9.43;100.00;100665.13;4910875;29;20063;-90
2023/03/22 02:19:54;;;;;;;12.00;3.80;;;;;;;9.38;100.00;100657.03;4922231;29;20031;-89
2023/03/22 02:22:45;;;;;;;13.05;3.25;;;;;;;9.36;100.00;100642.66;4921741;29;20146;-90
2023/03/22 02:25:40;;;;;;;8.85;3.80;;;;;;;9.41;100.00;100638.75;4928325;29;20114;-89
2023/03/22 02:28:42;;;;;;;8.13;3.25;;;;;;;9.36;100.00;100642.66;4927635;29;20033;-90
2023/03/22 02:31:40;;;;;;;8.98;3.67;;;;;;;9.35;100.00;100635.44;4911204;29;20066;-90
2023/03/22 02:34:09;;;;;;;8.75;4.15;;;;;;;9.36;100.00;100632.28;4895564;29;20066;-89
2023/03/22 02:37:08;;;;;;;8.90;3.72;;;;;;;9.30;100.00;100624.63;4925219;29;20047;-89
2023/03/22 02:39:48;;;;;;;15.98;4.82;;;;;;;9.17;100.00;100621.22;4927169;29;20032;-90
2023/03/22 02:42:43;;;;;;;10.63;4.00;;;;;;;9.23;100.00;100624.47;4925325;29;20039;-90
2023/03/22 02:45:11;;;;;;;9.63;4.78;;;;;;;9.21;100.00;100616.47;4904580;29;20031;-90
2023/03/22 02:48:04;;;;;;;16.38;4.82;;;;;;;9.29;100.00;100620.19;4910505;29;20078;-90
2023/03/22 02:50:40;;;;;;;8.98;3.97;;;;;;;9.26;100.00;100604.19;4909516;29;20537;-90
2023/03/22 02:53:11;;;;;;;10.13;3.75;;;;;;;9.21;100.00;100599.72;4907482;29;20118;-90
2023/03/22 02:55:38;;;;;;;11.07;3.78;;;;;;;9.24;100.00;100600.97;4922881;29;20042;-90
2023/03/22 02:58:16;;;;;;;9.63;4.55;;;;;;;9.27;100.00;100598.22;4912525;29;20036;-90
2023/03/22 03:00:45;;;;;;;12.25;3.80;;;;;;;9.06;100.00;100567.97;4910738;29;20562;-89
2023/03/22 03:03:13;;;;;;;12.05;3.33;;;;;;;9.04;100.00;100570.34;4906727;29;20070;-89
2023/03/22 03:05:43;;;;;;;11.00;3.20;;;;;;;9.16;100.00;100588.88;4908902;29;20682;-90
2023/03/22 03:08:11;;;;;;;13.48;3.33;;;;;;;9.23;100.00;100585.38;4919663;29;20035;-89
2023/03/22 03:10:39;;;;;;;9.30;3.15;;;;;;;9.22;100.00;100584.59;4915639;29;20479;-90
2023/03/22 03:13:05;;;;;;;7.88;3.75;;;;;;;9.26;100.00;100581.84;4924968;29;20024;-89
2023/03/22 03:15:31;;;;;;;17.40;4.28;;;;;;;9.10;100.00;100574.44;4918449;29;20090;-89
2023/03/22 03:18:19;;;;;;;10.90;3.53;;;;;;;9.06;100.00;100565.19;4923603;29;20034;-90
2023/03/22 03:20:59;;;;;;;9.95;3.67;;;;;;;9.19;100.00;100565.78;4908376;29;20553;-90
2023/03/22 03:23:48;;;;;;;10.43;4.38;;;;;;;9.12;100.00;100560.91;4909250;29;20036;-90
2023/03/22 03:26:22;;;;;;;11.57;3.75;;;;;;;9.14;100.00;100561.31;4925476;29;20124;-90
2023/03/22 03:29:21;;;;;;;14.32;4.20;;;;;;;9.20;100.00;100558.22;4920061;29;20502;-90
2023/03/22 03:32:30;;;;;;;12.57;4.60;;;;;;;9.21;100.00;100554.25;4900022;29;20043;-90
2023/03/22 03:35:24;;;;;;;9.98;4.05;;;;;;;9.09;100.00;100550.50;4881594;29;20052;-89
2023/03/22 03:37:52;;;;;;;11.57;4.43;;;;;;;9.14;100.00;100555.75;4924358;29;20040;-90
2023/03/22 03:40:25;;;;;;;7.78;4.07;;;;;;;9.13;100.00;100545.78;4913632;29;20040;-89
2023/03/22 03:42:53;;;;;;;8.38;4.72;;;;;;;9.18;100.00;100553.00;4907538;29;20039;-89
2023/03/22 03:45:20;;;;;;;12.48;5.25;;;;;;;9.16;100.00;100553.38;4909884;29;20562;-90
2023/03/22 03:47:54;;;;;;;12.20;5.22;;;;;;;9.19;100.00;100559.38;4911008;29;20039;-90
2023/03/22 03:50:19;;;;;;;14.13;5.07;;;;;;;9.20;100.00;100561.81;4913628;29;20070;-89
2023/03/22 03:52:45;;;;;;;10.07;5.57;;;;;;;9.20;100.00;100561.81;4911030;29;20036;-89
2023/03/22 03:55:10;;;;;;;12.45;5.68;;;;;;;9.14;100.00;100557.72;4910415;29;20062;-90
2023/03/22 03:57:36;;;;;;;13.40;5.93;;;;;;;9.15;100.00;100560.16;4912533;29;20031;-90
2023/03/22 04:00:03;;;;;;;18.63;7.05;;;;;;;9.14;100.00;100552.94;4923257;29;20035;-90
2023/03/22 04:02:28;;;;;;;12.70;6.68;;;;;;;9.17;100.00;100551.41;4909472;29;20050;-90
2023/03/22 04:04:53;;;;;;;13.35;6.72;;;;;;;9.12;100.00;100546.94;4912516;29;20027;-90
2023/03/22 04:07:19;;;;;;;14.77;7.13;;;;;;;9.16;100.00;100556.16;4909852;29;20064;-90
2023/03/22 04:09:44;;;;;;;13.45;7.05;;;;;;;9.16;100.00;100555.38;4913662;29;20050;-90
2023/03/22 04:12:10;;;;;;;16.13;6.57;;;;;;;9.14;100.00;100558.53;4915489;29;20485;-90
2023/03/22 04:14:35;;;;;;;19.60;7.13;;;;;;;9.12;100.00;100558.09;4913956;29;20058;-89
2023/03/22 04:17:00;;;;;;;14.40;7.05;;;;;;;9.10;100.00;100535.34;4916933;29;20091;-90
2023/03/22 04:19:26;;;;;;;18.83;9.27;;;;;;;9.22;100.00;100561.44;4914262;29;20114;-90
2023/03/22 04:21:51;;;;;;;20.48;8.25;;;;;;;9.19;100.00;100559.38;4934488;29;20093;-90
2023/03/22 04:24:18;;;;;;;19.75;8.80;;;;;;;9.11;100.00;100558.50;4913550;29;20047;-90
2023/03/22 04:26:43;;;;;;;17.77;9.07;;;;;;;9.09;100.00;100539.31;4928344;29;20557;-89
2023/03/22 04:29:08;;;;;;;18.13;9.00;;;;;;;9.09;100.00;100544.91;4931726;29;20349;-90
2023/03/22 04:31:37;;;;;;;17.02;9.98;;;;;;;9.18;100.00;100541.84;4917261;29;20409;-90
2023/03/22 04:34:05;;;;;;;26.77;10.50;;;;;;;9.13;100.00;100548.56;4920215;29;20445;-90
2023/03/22 04:36:38;;;;;;;21.83;9.35;;;;;;;9.10;100.00;100542.91;4930084;29;20402;-89
2023/03/22 04:39:09;;;;;;;21.48;10.77;;;;;;;9.07;100.00;100529.72;4925602;29;20046;-90
2023/03/22 04:41:35;;;;;;;17.23;9.80;;;;;;;9.09;100.00;100542.13;4925782;29;20509;-89
2023/03/22 04:44:02;;;;;;;22.40;11.02;;;;;;;9.12;100.00;100538.56;4913541;29;20035;-90
2023/03/22 04:46:29;;;;;;;21.55;11.27;;;;;;;9.17;100.00;100551.41;4913144;29;20023;-90
2023/03/22 04:48:55;;;;;;;22.60;10.13;;;;;;;9.21;100.00;100551.44;4931241;29;20058;-90
2023/03/22 04:51:20;;;;;;;22.27;9.57;;;;;;;9.21;100.00;100541.06;4912184;29;20036;-90
2023/03/22 04:53:46;;;;;;;20.08;11.68;;;;;;;9.21;100.00;100540.28;4913370;29;20402;-90
2023/03/22 04:56:13;;;;;;;23.83;11.38;;;;;;;9.26;100.00;100537.19;4924710;29;20035;-88
2023/03/22 04:58:39;;;;;;;25.80;9.82;;;;;;;9.26;100.00;100526.00;4927474;29;20027;-89
2023/03/22 05:01:06;;;;;;;20.17;9.88;;;;;;;9.33;100.00;100510.13;4905415;29;20046;-89
2023/03/22 05:03:32;;;;;;;19.40;8.85;;;;;;;9.36;100.00;100523.34;4901581;29;20854;-89
2023/03/22 05:06:00;;;;;;;22.38;9.93;;;;;;;9.36;100.00;100525.34;4905343;29;20028;-88
2023/03/22 05:08:27;;;;;;;16.80;9.27;;;;;;;9.28;100.00;100507.69;4910086;29;20417;-89
2023/03/22 05:10:54;;;;;;;23.30;10.02;;;;;;;9.35;100.00;100496.59;4922542;29;20023;-89
2023/03/22 05:13:20;;;;;;;22.30;9.23;;;;;;;9.42;100.00;100511.84;4922924;29;20525;-89
2023/03/22 05:15:47;;;;;;;23.15;10.13;;;;;;;9.37;100.00;100493.44;4908656;29;20036;-89
2023/03/22 05:18:14;;;;;;;23.65;11.52;;;;;;;9.43;100.00;100500.28;4925552;29;20533;-90
2023/03/22 05:20:40;;;;;;;23.40;10.18;;;;;;;9.49;100.00;100490.41;4919518;29;20031;-89
2023/03/22 05:23:06;;;;;;;19.63;10.50;;;;;;;9.43;100.00;100499.50;4929067;29;20046;-88
2023/03/22 05:25:31;;;;;;;23.35;10.25;;;;;;;9.43;100.00;100491.91;4912870;29;20733;-89
2023/03/22 05:28:00;;;;;;;24.13;10.27;;;;;;;9.45;100.00;100488.75;4926241;29;20500;-89
2023/03/22 05:30:27;;;;;;;22.25;12.20;;;;;;;9.39;100.00;100485.47;4928518;29;20036;-89
2023/03/22 05:32:56;;;;;;;24.83;10.65;;;;;;;9.38;100.00;100483.06;4934919;29;20035;-89
2023/03/22 05:35:22;;;;;;;18.85;10.85;;;;;;;9.44;100.00;100487.91;4908867;29;20083;-89
2023/03/22 05:37:47;;;;;;;24.23;11.60;;;;;;;9.45;100.00;100483.94;4910015;29;20036;-89
2023/03/22 05:40:13;;;;;;;17.90;9.25;;;;;;;9.46;100.00;100484.75;4915644;29;20031;-89
2023/03/22 05:42:39;;;;;;;21.30;9.73;;;;;;;9.46;100.00;100481.97;4906876;29;20070;-89
2023/03/22 05:45:05;;;;;;;17.15;9.50;;;;;;;9.48;100.00;100485.97;4920232;29;20123;-89
2023/03/22 05:47:30;;;;;;;20.17;11.48;;;;;;;9.52;100.00;100495.22;4897687;29;20420;-89
2023/03/22 05:49:55;;;;;;;19.73;10.07;;;;;;;9.53;100.00;100485.66;4915098;29;20058;-88
2023/03/22 05:52:21;;;;;;;24.30;10.40;;;;;;;9.54;100.00;100495.63;4906462;29;20028;-89
2023/03/22 05:54:46;;;;;;;22.85;9.90;;;;;;;9.46;100.00;100484.75;4903879;29;22025;-88
2023/03/22 05:57:11;;;;;;;21.60;10.35;;;;;;;9.40;100.00;100477.88;4919936;29;20589;-89
2023/03/22 05:59:37;;;;;;;23.23;11.93;;;;;;;9.51;100.00;100482.44;4899948;29;20043;-88
2023/03/22 06:02:02;;;;;;;24.98;10.95;;;;;;;9.53;100.00;100488.44;4898959;29;20478;-89
2023/03/22 06:04:29;;;;;;;28.35;12.63;;;;;;;9.52;100.00;100486.81;4902636;29;20668;-88
2023/03/22 06:06:54;;;;;;;20.08;10.50;;;;;;;9.57;100.00;100491.25;4907865;29;20461;-89
2023/03/22 06:09:20;;;;;;;20.75;10.25;;;;;;;9.54;100.00;100481.66;4920364;29;20028;-89
2023/03/22 06:11:45;;;;;;;20.20;9.85;;;;;;;9.54;100.00;100470.47;4899477;29;20106;-89
2023/03/22 06:14:11;;;;;;;26.88;9.43;;;;;;;9.55;100.00;100483.28;4914832;29;20028;-89
2023/03/22 06:16:36;;;;;;;22.95;10.40;;;;;;;9.55;100.00;100479.69;4916316;29;20461;-88
2023/03/22 06:19:02;;;;;;;24.48;10.40;;;;;;;9.62;100.00;100473.38;4918930;29;20059;-89
2023/03/22 06:21:27;;;;;;;23.00;9.93;;;;;;;9.60;100.00;100467.38;4919320;29;20078;-89
2023/03/22 06:23:52;;;;;;;22.05;10.45;;;;;;;9.58;100.00;100462.16;4905334;29;21318;-89
2023/03/22 06:26:18;;;;;;;15.57;9.25;;;;;;;9.60;100.00;100459.00;4919394;29;20032;-89
2023/03/22 06:28:43;;;;;;;23.60;9.27;;;;;;;9.69;100.00;100465.06;4908845;29;20051;-89
2023/03/22 06:31:09;;;;;;;16.67;9.00;;;;;;;9.69;100.00;100459.47;4929583;29;20047;-89
2023/03/22 06:33:35;;;;;;;20.55;9.38;;;;;;;9.72;100.00;100467.91;4902854;29;20497;-89
2023/03/22 06:36:02;;;;;;;24.25;9.80;;;;;;;9.73;100.00;100469.50;4904161;29;20497;-88
2023/03/22 06:38:28;;;;;;;17.55;9.30;;;;;;;9.74;100.00;100471.13;4904809;29;20035;-89
2023/03/22 06:40:54;;;;;;;20.77;9.88;;;;;;;9.78;100.00;100465.56;4923551;29;20042;-89
2023/03/22 06:43:19;;;;;;;15.63;8.10;;;;;;;9.83;100.00;100475.63;4923387;29;20032;-90
2023/03/22 06:45:46;;;;;;;14.85;8.15;;;;;;;9.86;100.00;100478.44;4906841;29;20042;-89
2023/03/22 06:48:11;;;;;;;25.02;9.73;;;;;;;9.85;100.00;100468.44;4923879;29;20916;-89
2023/03/22 06:50:37;;;;;;;19.63;7.47;;;;;;;9.85;100.00;100462.84;4907575;29;20032;-89
2023/03/22 06:53:04;;;;;;;15.77;7.18;;;;;;;9.86;100.00;100458.06;4903466;29;20119;-89
2023/03/22 06:55:33;;;;;;;18.33;8.38;;;;;;;9.88;100.00;100458.50;4906819;29;20032;-89
2023/03/22 06:58:01;;;;;;;20.42;7.95;;;;;;;9.85;100.00;100465.66;4899534;29;20483;-89
2023/03/22 07:00:27;;;;;;;15.93;7.53;;;;;;;9.87;100.00;100448.50;4912794;29;20390;-88
2023/03/22 07:02:53;;;;;;;19.58;6.95;;;;;;;9.84;100.00;100450.06;4910991;29;20047;-87
2023/03/22 07:05:19;;;;;;;16.42;7.43;;;;;;;9.85;100.00;100457.28;4898966;29;20036;-87
2023/03/22 07:07:45;;;;;;;13.43;6.10;;;;;;;9.86;100.00;100447.69;4901214;29;20035;-87
2023/03/22 07:10:11;;;;;;;14.45;6.18;;;;;;;10.23;100.00;100449.66;4903725;29;20063;-90
2023/03/22 07:12:36;;;;;;;15.25;6.93;;;;;;;10.02;100.00;100452.25;4910382;29;20079;-90
2023/03/22 07:15:02;;;;;;;11.73;6.32;;;;;;;10.04;100.00;100473.03;4913777;29;20119;-90
2023/03/22 07:17:28;;;;;;;13.32;7.13;;;;;;;9.98;100.00;100469.78;4934125;29;20028;-90
2023/03/22 07:19:53;;;;;;;13.32;7.15;;;;;;;9.95;100.00;100464.97;4915039;29;20078;-90
2023/03/22 07:22:21;;;;;;;12.27;6.75;;;;;;;9.89;100.00;100452.53;4934705;29;20524;-90
2023/03/22 07:24:51;;;;;;;9.85;6.32;;;;;;;10.04;100.00;100461.06;4913078;29;20031;-91
2023/03/22 07:27:16;;;;;;;15.43;7.22;;;;;;;10.06;100.00;100461.47;4923628;29;20032;-90
2023/03/22 07:29:42;;;;;;;11.45;6.10;;;;;;;10.08;100.00;100457.09;4909088;29;20082;-91
2023/03/22 07:32:08;;;;;;;12.10;5.75;;;;;;;9.97;100.00;100442.19;4926626;29;20040;-91
2023/03/22 07:34:33;;;;;;;10.55;5.88;;;;;;;10.00;100.00;100446.22;4921363;29;20502;-92
2023/03/22 07:36:59;;;;;;;16.60;5.78;;;;;;;9.97;100.00;100445.81;4912799;29;20039;-91
2023/03/22 07:39:25;;;;;;;12.73;5.85;;;;;;;10.12;100.00;100465.53;4907837;29;20117;-91
2023/03/22 07:41:51;;;;;;;12.80;5.18;;;;;;;10.10;100.00;100459.53;4923858;29;20253;-91
2023/03/22 07:44:17;;;;;;;15.07;5.28;;;;;;;10.13;100.00;100462.31;4909896;29;20034;-92
2023/03/22 07:46:42;;;;;;;16.17;6.35;;;;;;;10.26;100.00;100457.25;4905010;29;20051;-83
2023/03/22 07:49:08;;;;;;;19.88;7.85;;;;;;;10.26;100.00;100462.84;4931361;29;20131;-83
2023/03/22 07:51:33;;;;;;;12.60;6.30;;;;;;;10.22;100.00;100459.22;4902702;29;20142;-82
2023/03/22 07:54:00;;;;;;;18.20;6.10;;;;;;;10.27;100.00;100453.28;4909492;29;20060;-83
2023/03/22 07:56:25;;;;;;;12.18;4.63;;;;;;;10.78;100.00;100469.28;4901092;29;20039;-84
2023/03/22 07:58:50;;;;;;;14.48;6.22;;;;;;;10.45;100.00;100444.25;4927200;29;20039;-82
2023/03/22 08:01:16;;;;;;;20.10;5.60;;;;;;;10.41;100.00;100469.41;4918763;29;20132;-81
2023/03/22 08:03:41;;;;;;;12.15;5.57;;;;;;;10.30;100.00;100463.72;4922875;29;20072;-81
2023/03/22 08:06:07;;;;;;;10.70;6.18;;;;;;;10.35;100.00;100466.16;4922941;29;20111;-81
2023/03/22 08:08:35;;;;;;;9.60;5.35;;;;;;;10.35;100.00;100465.34;4925428;29;20039;-82
2023/03/22 08:11:01;;;;;;;12.55;5.53;;;;;;;10.33;100.00;100468.56;4907202;29;20489;-82
2023/03/22 08:13:27;;;;;;;14.35;6.03;;;;;;;10.33;100.00;100459.31;4929540;29;20032;-82
2023/03/22 08:15:52;;;;;;;12.38;5.57;;;;;;;10.28;100.00;100457.66;4929908;29;20043;-82
2023/03/22 08:18:17;;;;;;;16.33;5.70;;;;;;;10.33;100.00;100457.34;4907450;29;20482;-82
2023/03/22 08:20:44;;;;;;;18.10;5.65;;;;;;;10.35;100.00;100451.34;4930168;29;20032;-82
2023/03/22 08:23:14;;;;;;;10.40;5.25;;;;;;;10.44;100.00;100446.25;4926014;29;20039;-82
2023/03/22 08:25:41;;;;;;;12.30;5.22;;;;;;;10.50;100.00;100441.09;4921610;29;20532;-82
2023/03/22 08:28:08;;;;;;;14.15;5.90;;;;;;;10.51;100.00;100442.69;4923688;29;20055;-82
2023/03/22 08:30:33;;;;;;;17.83;5.43;;;;;;;10.55;100.00;100454.72;4928791;29;20028;-81
2023/03/22 08:32:59;;;;;;;23.75;7.80;;;;;;;10.58;100.00;100445.53;4903025;29;20038;-82
2023/03/22 08:35:24;;;;;;;12.65;4.70;;;;;;;10.54;100.00;100441.91;4905925;29;20124;-82
2023/03/22 08:37:54;;;;;;;12.65;5.85;;;;;;;10.57;100.00;100449.53;4924524;29;20130;-83
2023/03/22 08:40:21;;;;;;;14.82;5.28;;;;;;;10.66;100.00;100450.00;4921402;29;20031;-83
2023/03/22 08:42:47;;;;;;;12.15;5.05;;;;;;;10.72;100.00;100448.44;4924021;29;20129;-83
2023/03/22 08:45:12;;;;;;;13.82;4.80;;;;;;;10.77;100.00;100450.91;4925471;29;20028;-82
2023/03/22 08:47:37;;;;;;;10.18;4.63;;;;;;;10.76;100.00;100449.28;4907600;29;20043;-81
2023/03/22 08:50:03;;;;;;;12.40;5.07;;;;;;;10.89;100.00;100441.34;4916556;29;20082;-82
2023/03/22 08:52:29;;;;;;;14.50;6.72;;;;;;;10.82;100.00;100440.53;4925433;29;20127;-82
2023/03/22 08:54:55;;;;;;;8.25;4.05;;;;;;;10.77;100.00;100441.69;4922580;29;20031;-82
2023/03/22 08:57:22;;;;;;;12.90;4.47;;;;;;;10.82;100.00;100434.94;4926461;29;20023;-82
2023/03/22 08:59:48;;;;;;;11.20;4.30;;;;;;;10.84;100.00;100432.53;4908714;29;20075;-83
2023/03/22 09:02:13;;;;;;;13.57;4.63;;;;;;;10.89;100.00;100435.75;4907333;29;20111;-82
2023/03/22 09:04:39;;;;;;;16.02;4.85;;;;;;;10.92;100.00;100446.19;4924470;29;20453;-83
2023/03/22 09:07:07;;;;;;;15.82;4.85;;;;;;;10.93;100.00;100433.00;4921826;29;20102;-83
2023/03/22 09:09:32;;;;;;;15.98;5.20;;;;;;;11.01;100.00;100431.84;4918155;29;20047;-83
2023/03/22 09:11:57;;;;;;;13.85;4.55;;;;;;;10.96;100.00;100433.00;4924306;29;20044;-84
2023/03/22 09:14:23;;;;;;;9.30;3.88;;;;;;;10.95;100.00;100434.19;4923971;29;20501;-84
2023/03/22 09:16:48;;;;;;;13.77;4.13;;;;;;;11.09;100.00;100439.09;4919595;29;20364;-85
2023/03/22 09:19:13;;;;;;;10.40;4.35;;;;;;;11.05;100.00;100438.25;4902901;29;20039;-85
2023/03/22 09:21:39;;;;;;;9.23;4.25;;;;;;;10.93;100.00;100436.59;4918253;29;20050;-87
2023/03/22 09:24:04;;;;;;;13.98;4.20;;;;;;;10.94;100.00;100437.38;4901276;29;20032;-85
2023/03/22 09:26:30;;;;;;;13.13;3.90;;;;;;;10.95;100.00;100428.59;4905671;29;20099;-86
2023/03/22 09:28:55;;;;;;;17.35;4.10;;;;;;;10.93;100.00;100441.38;4918145;29;20406;-85
2023/03/22 09:31:22;;;;;;;9.90;4.35;;;;;;;10.84;100.00;100427.75;4918152;29;20126;-86
2023/03/22 09:33:47;;;;;;;11.48;4.45;;;;;;;10.84;100.00;100435.34;4901435;29;20056;-86
2023/03/22 09:36:12;;;;;;;10.07;3.72;;;;;;;10.84;100.00;100429.75;4921022;29;20406;-86
2023/03/22 09:38:40;;;;;;;9.93;4.03;;;;;;;10.86;100.00;100441.34;4898793;29;20553;-87
2023/03/22 09:41:27;;;;;;;11.57;3.33;;;;;;;10.82;100.00;100437.72;4923820;29;20035;-86
2023/03/22 09:44:04;;;;;;;8.73;3.78;;;;;;;10.87;100.00;100437.34;4903173;29;20043;-86
2023/03/22 09:46:37;;;;;;;9.27;3.80;;;;;;;10.80;100.00;100434.50;4917620;29;20036;-86
2023/03/22 09:49:34;;;;;;;7.72;4.30;;;;;;;10.86;100.00;100439.34;4897601;29;20098;-85
2023/03/22 09:52:00;;;;;;;10.35;3.78;;;;;;;10.83;100.00;100442.13;4910353;29;20075;-85
2023/03/22 09:54:39;;;;;;;9.77;4.10;;;;;;;10.89;100.00;100451.75;4922224;29;20036;-85
2023/03/22 09:57:26;;;;;;;12.55;4.88;;;;;;;10.93;100.00;100438.59;4918293;29;20055;-85
2023/03/22 10:00:10;;;;;;;6.72;4.13;;;;;;;10.90;100.00;100439.34;4900727;29;20040;-85
2023/03/22 10:02:44;;;;;;;11.68;4.78;;;;;;;10.92;100.00;100450.97;4919965;29;20035;-85
2023/03/22 10:05:18;;;;;;;12.82;4.10;;;;;;;10.90;100.00;100430.94;4916892;29;21941;-85
2023/03/22 10:07:57;;;;;;;12.63;6.00;;;;;;;10.96;100.00;100440.59;4892587;29;20524;-83
2023/03/22 10:10:24;;;;;;;21.23;4.78;;;;;;;10.86;100.00;100430.94;4921143;29;20555;-86
2023/03/22 10:13:14;;;;;;;13.65;4.53;;;;;;;10.84;100.00;100444.53;4922784;29;20039;-86
2023/03/22 10:15:55;;;;;;;9.40;4.13;;;;;;;10.89;100.00;100434.97;4918172;29;20110;-86
2023/03/22 10:18:25;;;;;;;7.53;3.88;;;;;;;10.83;100.00;100431.72;4900689;29;20036;-85
2023/03/22 10:21:02;;;;;;;13.00;4.35;;;;;;;10.82;100.00;100427.31;4907802;29;20047;-86
2023/03/22 10:23:43;;;;;;;13.55;4.13;;;;;;;10.81;100.00;100431.31;4906428;29;20020;-86
2023/03/22 10:26:17;;;;;;;11.57;3.60;;;;;;;10.82;100.00;100432.13;4927717;29;20042;-86
2023/03/22 10:28:46;;;;;;;8.20;3.90;;;;;;;10.83;100.00;100428.13;4902676;29;20032;-89
2023/03/22 10:31:16;;;;;;;10.50;3.78;;;;;;;10.73;100.00;100418.44;4932035;29;20023;-89
2023/03/22 10:33:54;;;;;;;11.25;4.47;;;;;;;10.68;100.00;100419.63;4926390;29;20027;-88
2023/03/22 10:36:25;;;;;;;9.15;3.38;;;;;;;10.72;100.00;100440.06;4925082;29;20032;-88
2023/03/22 10:38:58;;;;;;;8.27;3.22;;;;;;;10.70;100.00;100441.63;4904280;29;20495;-89
2023/03/22 10:41:26;;;;;;;9.30;3.58;;;;;;;10.64;100.00;100441.19;4912001;29;20508;-88
2023/03/22 10:43:55;;;;;;;15.00;3.75;;;;;;;10.60;100.00;100445.16;4921421;29;20035;-89
2023/03/22 10:46:25;;;;;;;15.77;4.13;;;;;;;10.55;100.00;100440.72;4939249;29;20038;-89
2023/03/22 10:48:56;;;;;;;9.25;3.25;;;;;;;10.55;100.00;100454.72;4918452;29;20112;-90
2023/03/22 10:51:46;;;;;;;9.43;3.78;;;;;;;10.51;100.00;100448.31;4917152;29;20032;-92
2023/03/22 10:54:14;;;;;;;15.85;3.90;;;;;;;10.46;100.00;100452.25;4914252;29;20508;-88
2023/03/22 10:56:39;;;;;;;7.65;3.95;;;;;;;10.43;100.00;100449.44;4911977;29;20095;-88
2023/03/22 10:59:05;;;;;;;7.28;3.97;;;;;;;10.38;100.00;100440.19;4913482;29;20386;-88
2023/03/22 11:01:40;;;;;;;8.68;3.40;;;;;;;10.33;100.00;100448.97;4916155;29;20032;-88
2023/03/22 11:04:15;;;;;;;6.75;3.45;;;;;;;10.32;100.00;100452.94;4909834;29;20063;-89
2023/03/22 11:06:53;;;;;;;11.60;4.60;;;;;;;10.33;100.00;100454.56;4925271;29;20034;-88
2023/03/22 11:09:21;;;;;;;11.02;3.05;;;;;;;10.34;100.00;100460.94;4922649;29;20035;-88
2023/03/22 11:11:55;;;;;;;9.95;3.53;;;;;;;10.29;100.00;100464.91;4926283;29;20107;-88
2023/03/22 11:14:35;;;;;;;11.80;4.22;;;;;;;10.33;100.00;100464.94;4930559;29;20032;-88
2023/03/22 11:17:12;;;;;;;9.35;3.83;;;;;;;10.33;100.00;100448.97;4908484;29;20035;-88
2023/03/22 11:19:41;;;;;;;5.70;2.80;;;;;;;10.34;100.00;100438.56;4926074;29;20036;-89
2023/03/22 11:22:46;;;;;;;9.45;3.63;;;;;;;10.33;100.00;100437.78;4912036;29;20059;-88
2023/03/22 11:25:33;;;;;;;10.60;3.75;;;;;;;10.44;100.00;100440.66;4919611;29;20055;-89